<?xml version='1.0' encoding='UTF-8'?><gpx version="1.1" creator="JPX - https://github.com/jenetics/jpx" xmlns="http://www.topografix.com/GPX/1/1"><trk><trkseg><trkpt lat="42.4947883" lon="12.4295611"><ele>251.60000000000002</ele><time>2026-03-23T13:26:28.207Z</time></trkpt><trkpt lat="42.4948156" lon="12.4297038"><ele>252.20000000000002</ele><time>2026-03-23T13:26:31.207Z</time></trkpt><trkpt lat="42.4948525" lon="12.4298215"><ele>252.79999999999998</ele><time>2026-03-23T13:26:33.207Z</time></trkpt><trkpt lat="42.4948987" lon="12.4299498"><ele>253.39999999999998</ele><time>2026-03-23T13:26:35.208Z</time></trkpt><trkpt lat="42.4949396" lon="12.4300842"><ele>254.0</ele><time>2026-03-23T13:26:37.207Z</time></trkpt><trkpt lat="42.494976" lon="12.4302239"><ele>254.0</ele><time>2026-03-23T13:26:39.208Z</time></trkpt><trkpt lat="42.495007" lon="12.4303858"><ele>253.99999999999997</ele><time>2026-03-23T13:26:41.209Z</time></trkpt><trkpt lat="42.4950308" lon="12.4305478"><ele>253.99999999999997</ele><time>2026-03-23T13:26:43.207Z</time></trkpt><trkpt lat="42.4950531" lon="12.4306934"><ele>254.0</ele><time>2026-03-23T13:26:45.207Z</time></trkpt><trkpt lat="42.4950677" lon="12.4307776"><ele>254.0</ele><time>2026-03-23T13:26:46.208Z</time></trkpt><trkpt lat="42.4950812" lon="12.4308699"><ele>253.66666666666669</ele><time>2026-03-23T13:26:47.207Z</time></trkpt><trkpt lat="42.4950975" lon="12.4309721"><ele>253.33333333333334</ele><time>2026-03-23T13:26:48.207Z</time></trkpt><trkpt lat="42.495115" lon="12.4310785"><ele>253.0</ele><time>2026-03-23T13:26:49.207Z</time></trkpt><trkpt lat="42.4951349" lon="12.4311897"><ele>252.66666666666669</ele><time>2026-03-23T13:26:50.207Z</time></trkpt><trkpt lat="42.4951547" lon="12.4313059"><ele>252.33333333333334</ele><time>2026-03-23T13:26:51.209Z</time></trkpt><trkpt lat="42.4951728" lon="12.4314227"><ele>252.0</ele><time>2026-03-23T13:26:52.207Z</time></trkpt><trkpt lat="42.4951921" lon="12.4315432"><ele>252.0</ele><time>2026-03-23T13:26:53.208Z</time></trkpt><trkpt lat="42.4952101" lon="12.4316663"><ele>252.0</ele><time>2026-03-23T13:26:54.207Z</time></trkpt><trkpt lat="42.4952275" lon="12.4317867"><ele>252.0</ele><time>2026-03-23T13:26:55.208Z</time></trkpt><trkpt lat="42.4952413" lon="12.4319073"><ele>252.0</ele><time>2026-03-23T13:26:56.208Z</time></trkpt><trkpt lat="42.4952563" lon="12.4320288"><ele>252.0</ele><time>2026-03-23T13:26:57.208Z</time></trkpt><trkpt lat="42.4952646" lon="12.4321483"><ele>251.66666666666666</ele><time>2026-03-23T13:26:58.207Z</time></trkpt><trkpt lat="42.4952645" lon="12.4322642"><ele>251.33333333333331</ele><time>2026-03-23T13:26:59.207Z</time></trkpt><trkpt lat="42.4952625" lon="12.4323818"><ele>251.0</ele><time>2026-03-23T13:27:00.208Z</time></trkpt><trkpt lat="42.4952591" lon="12.4324966"><ele>250.66666666666666</ele><time>2026-03-23T13:27:01.208Z</time></trkpt><trkpt lat="42.4952538" lon="12.4326238"><ele>250.33333333333331</ele><time>2026-03-23T13:27:02.207Z</time></trkpt><trkpt lat="42.4952472" lon="12.4327459"><ele>250.0</ele><time>2026-03-23T13:27:03.208Z</time></trkpt><trkpt lat="42.4952422" lon="12.432871"><ele>249.83333333333331</ele><time>2026-03-23T13:27:04.207Z</time></trkpt><trkpt lat="42.4952362" lon="12.432991"><ele>249.66666666666666</ele><time>2026-03-23T13:27:05.207Z</time></trkpt><trkpt lat="42.4952312" lon="12.4331103"><ele>249.5</ele><time>2026-03-23T13:27:06.207Z</time></trkpt><trkpt lat="42.4952217" lon="12.4332283"><ele>249.33333333333331</ele><time>2026-03-23T13:27:07.208Z</time></trkpt><trkpt lat="42.4952131" lon="12.4333509"><ele>249.16666666666666</ele><time>2026-03-23T13:27:08.208Z</time></trkpt><trkpt lat="42.4952052" lon="12.4334739"><ele>249.0</ele><time>2026-03-23T13:27:09.207Z</time></trkpt><trkpt lat="42.4951983" lon="12.4335959"><ele>249.0</ele><time>2026-03-23T13:27:10.207Z</time></trkpt><trkpt lat="42.4951924" lon="12.4337013"><ele>249.0</ele><time>2026-03-23T13:27:11.208Z</time></trkpt><trkpt lat="42.4951856" lon="12.4338034"><ele>249.0</ele><time>2026-03-23T13:27:12.208Z</time></trkpt><trkpt lat="42.4951729" lon="12.4339084"><ele>249.0</ele><time>2026-03-23T13:27:13.207Z</time></trkpt><trkpt lat="42.4951588" lon="12.434021"><ele>249.0</ele><time>2026-03-23T13:27:14.208Z</time></trkpt><trkpt lat="42.4951445" lon="12.4341316"><ele>249.0</ele><time>2026-03-23T13:27:15.207Z</time></trkpt><trkpt lat="42.4951262" lon="12.4342384"><ele>248.66666666666666</ele><time>2026-03-23T13:27:16.207Z</time></trkpt><trkpt lat="42.4951094" lon="12.4343507"><ele>248.33333333333331</ele><time>2026-03-23T13:27:17.207Z</time></trkpt><trkpt lat="42.4950921" lon="12.4344654"><ele>248.0</ele><time>2026-03-23T13:27:18.208Z</time></trkpt><trkpt lat="42.4950842" lon="12.4345698"><ele>247.66666666666666</ele><time>2026-03-23T13:27:19.209Z</time></trkpt><trkpt lat="42.4950851" lon="12.4346659"><ele>247.33333333333331</ele><time>2026-03-23T13:27:20.207Z</time></trkpt><trkpt lat="42.4950932" lon="12.4347581"><ele>247.0</ele><time>2026-03-23T13:27:21.208Z</time></trkpt><trkpt lat="42.4951025" lon="12.4348524"><ele>246.99999999999997</ele><time>2026-03-23T13:27:22.207Z</time></trkpt><trkpt lat="42.4951161" lon="12.434958"><ele>247.0</ele><time>2026-03-23T13:27:23.207Z</time></trkpt><trkpt lat="42.4951266" lon="12.4350583"><ele>247.0</ele><time>2026-03-23T13:27:24.208Z</time></trkpt><trkpt lat="42.4951346" lon="12.4351554"><ele>247.0</ele><time>2026-03-23T13:27:25.208Z</time></trkpt><trkpt lat="42.4951419" lon="12.4352482"><ele>246.99999999999997</ele><time>2026-03-23T13:27:26.207Z</time></trkpt><trkpt lat="42.4951584" lon="12.4354147"><ele>247.0</ele><time>2026-03-23T13:27:28.207Z</time></trkpt><trkpt lat="42.4951641" lon="12.4355593"><ele>247.83333333333331</ele><time>2026-03-23T13:27:30.207Z</time></trkpt><trkpt lat="42.4951621" lon="12.4356703"><ele>248.66666666666666</ele><time>2026-03-23T13:27:32.207Z</time></trkpt><trkpt lat="42.4951594" lon="12.4357569"><ele>249.5</ele><time>2026-03-23T13:28:20.207Z</time></trkpt><trkpt lat="42.4951771" lon="12.4358585"><ele>250.33333333333331</ele><time>2026-03-23T13:28:22.207Z</time></trkpt><trkpt lat="42.4952257" lon="12.4359886"><ele>251.16666666666666</ele><time>2026-03-23T13:28:24.207Z</time></trkpt><trkpt lat="42.4952657" lon="12.4361345"><ele>252.0</ele><time>2026-03-23T13:28:26.208Z</time></trkpt><trkpt lat="42.4953006" lon="12.4362857"><ele>252.0</ele><time>2026-03-23T13:28:28.207Z</time></trkpt><trkpt lat="42.4953297" lon="12.4363712"><ele>252.0</ele><time>2026-03-23T13:28:29.207Z</time></trkpt><trkpt lat="42.4953651" lon="12.4364584"><ele>252.0</ele><time>2026-03-23T13:28:30.207Z</time></trkpt><trkpt lat="42.4953993" lon="12.4365474"><ele>252.0</ele><time>2026-03-23T13:28:31.207Z</time></trkpt><trkpt lat="42.4954292" lon="12.4366389"><ele>252.0</ele><time>2026-03-23T13:28:32.209Z</time></trkpt><trkpt lat="42.4954594" lon="12.4367248"><ele>252.0</ele><time>2026-03-23T13:28:33.207Z</time></trkpt><trkpt lat="42.4954926" lon="12.4368037"><ele>252.0</ele><time>2026-03-23T13:28:34.207Z</time></trkpt><trkpt lat="42.4955342" lon="12.4368795"><ele>252.0</ele><time>2026-03-23T13:28:35.208Z</time></trkpt><trkpt lat="42.4955806" lon="12.4369646"><ele>252.0</ele><time>2026-03-23T13:28:36.207Z</time></trkpt><trkpt lat="42.4956315" lon="12.4370411"><ele>252.0</ele><time>2026-03-23T13:28:37.207Z</time></trkpt><trkpt lat="42.4956855" lon="12.4371142"><ele>252.0</ele><time>2026-03-23T13:28:38.207Z</time></trkpt><trkpt lat="42.4957395" lon="12.4371906"><ele>252.0</ele><time>2026-03-23T13:28:39.207Z</time></trkpt><trkpt lat="42.495796" lon="12.4372661"><ele>252.0</ele><time>2026-03-23T13:28:40.207Z</time></trkpt><trkpt lat="42.4958523" lon="12.4373428"><ele>253.0</ele><time>2026-03-23T13:28:41.208Z</time></trkpt><trkpt lat="42.4959073" lon="12.4374236"><ele>254.0</ele><time>2026-03-23T13:28:42.207Z</time></trkpt><trkpt lat="42.4959639" lon="12.4375031"><ele>255.0</ele><time>2026-03-23T13:28:43.208Z</time></trkpt><trkpt lat="42.4960256" lon="12.4375805"><ele>256.0</ele><time>2026-03-23T13:28:44.207Z</time></trkpt><trkpt lat="42.4960895" lon="12.4376547"><ele>257.0</ele><time>2026-03-23T13:28:45.208Z</time></trkpt><trkpt lat="42.4961518" lon="12.4377215"><ele>258.0</ele><time>2026-03-23T13:28:46.207Z</time></trkpt><trkpt lat="42.4962084" lon="12.4377837"><ele>258.1666666666667</ele><time>2026-03-23T13:28:47.208Z</time></trkpt><trkpt lat="42.4962598" lon="12.4378438"><ele>258.3333333333333</ele><time>2026-03-23T13:28:48.207Z</time></trkpt><trkpt lat="42.4963119" lon="12.4379034"><ele>258.5</ele><time>2026-03-23T13:28:49.208Z</time></trkpt><trkpt lat="42.4963652" lon="12.4379661"><ele>258.66666666666663</ele><time>2026-03-23T13:28:50.207Z</time></trkpt><trkpt lat="42.49641" lon="12.4380262"><ele>258.8333333333333</ele><time>2026-03-23T13:28:51.208Z</time></trkpt><trkpt lat="42.4964902" lon="12.4381135"><ele>259.0</ele><time>2026-03-23T13:28:53.208Z</time></trkpt><trkpt lat="42.4965667" lon="12.4381573"><ele>259.0</ele><time>2026-03-23T13:28:55.207Z</time></trkpt><trkpt lat="42.4966307" lon="12.4381932"><ele>259.0</ele><time>2026-03-23T13:28:57.207Z</time></trkpt><trkpt lat="42.4967275" lon="12.4382624"><ele>259.0</ele><time>2026-03-23T13:29:00.207Z</time></trkpt><trkpt lat="42.4968001" lon="12.4383447"><ele>259.0</ele><time>2026-03-23T13:29:02.207Z</time></trkpt><trkpt lat="42.4968871" lon="12.4384229"><ele>259.0</ele><time>2026-03-23T13:29:04.206Z</time></trkpt><trkpt lat="42.4970024" lon="12.4384741"><ele>258.3333333333333</ele><time>2026-03-23T13:29:06.206Z</time></trkpt><trkpt lat="42.4971272" lon="12.4385273"><ele>257.66666666666663</ele><time>2026-03-23T13:29:08.206Z</time></trkpt><trkpt lat="42.4971894" lon="12.438564"><ele>257.0</ele><time>2026-03-23T13:29:09.207Z</time></trkpt><trkpt lat="42.4972559" lon="12.4385938"><ele>256.3333333333333</ele><time>2026-03-23T13:29:10.206Z</time></trkpt><trkpt lat="42.497319" lon="12.4386284"><ele>255.66666666666666</ele><time>2026-03-23T13:29:11.207Z</time></trkpt><trkpt lat="42.49739" lon="12.4386652"><ele>255.0</ele><time>2026-03-23T13:29:12.206Z</time></trkpt><trkpt lat="42.4974563" lon="12.4387016"><ele>255.0</ele><time>2026-03-23T13:29:13.206Z</time></trkpt><trkpt lat="42.4975166" lon="12.4387348"><ele>255.0</ele><time>2026-03-23T13:29:14.206Z</time></trkpt><trkpt lat="42.4976098" lon="12.4387945"><ele>255.0</ele><time>2026-03-23T13:29:16.208Z</time></trkpt><trkpt lat="42.4977036" lon="12.4388714"><ele>255.0</ele><time>2026-03-23T13:29:18.206Z</time></trkpt><trkpt lat="42.4977922" lon="12.4389875"><ele>255.0</ele><time>2026-03-23T13:29:20.207Z</time></trkpt><trkpt lat="42.4978634" lon="12.4391226"><ele>255.8</ele><time>2026-03-23T13:29:22.206Z</time></trkpt><trkpt lat="42.4978888" lon="12.4392933"><ele>256.6</ele><time>2026-03-23T13:29:24.207Z</time></trkpt><trkpt lat="42.4978863" lon="12.4394016"><ele>257.4</ele><time>2026-03-23T13:29:25.207Z</time></trkpt><trkpt lat="42.497887" lon="12.4395167"><ele>258.2</ele><time>2026-03-23T13:29:26.207Z</time></trkpt><trkpt lat="42.4978912" lon="12.4396328"><ele>259.0</ele><time>2026-03-23T13:29:27.206Z</time></trkpt><trkpt lat="42.4978891" lon="12.4397542"><ele>259.5</ele><time>2026-03-23T13:29:28.206Z</time></trkpt><trkpt lat="42.4978811" lon="12.4398757"><ele>260.0</ele><time>2026-03-23T13:29:29.206Z</time></trkpt><trkpt lat="42.4978696" lon="12.4399933"><ele>260.5</ele><time>2026-03-23T13:29:30.206Z</time></trkpt><trkpt lat="42.4978484" lon="12.4401092"><ele>261.0</ele><time>2026-03-23T13:29:31.206Z</time></trkpt><trkpt lat="42.4978213" lon="12.4402217"><ele>261.5</ele><time>2026-03-23T13:29:32.206Z</time></trkpt><trkpt lat="42.4977941" lon="12.4403247"><ele>262.0</ele><time>2026-03-23T13:29:33.207Z</time></trkpt><trkpt lat="42.4977619" lon="12.440413"><ele>261.3333333333333</ele><time>2026-03-23T13:29:34.206Z</time></trkpt><trkpt lat="42.4977324" lon="12.4404966"><ele>260.66666666666663</ele><time>2026-03-23T13:29:35.206Z</time></trkpt><trkpt lat="42.4977021" lon="12.440577"><ele>260.0</ele><time>2026-03-23T13:29:36.207Z</time></trkpt><trkpt lat="42.4976367" lon="12.4407198"><ele>259.3333333333333</ele><time>2026-03-23T13:29:38.206Z</time></trkpt><trkpt lat="42.497605" lon="12.4407966"><ele>258.6666666666667</ele><time>2026-03-23T13:29:39.208Z</time></trkpt><trkpt lat="42.4975461" lon="12.4409363"><ele>258.0</ele><time>2026-03-23T13:29:41.207Z</time></trkpt><trkpt lat="42.4975178" lon="12.4410694"><ele>258.0</ele><time>2026-03-23T13:29:43.206Z</time></trkpt><trkpt lat="42.49755" lon="12.4411986"><ele>258.0</ele><time>2026-03-23T13:29:45.208Z</time></trkpt><trkpt lat="42.4976034" lon="12.4413143"><ele>258.0</ele><time>2026-03-23T13:29:47.206Z</time></trkpt><trkpt lat="42.4976506" lon="12.4414222"><ele>258.0</ele><time>2026-03-23T13:29:49.206Z</time></trkpt><trkpt lat="42.4977063" lon="12.4415422"><ele>258.0</ele><time>2026-03-23T13:29:51.207Z</time></trkpt><trkpt lat="42.4977549" lon="12.441664"><ele>256.8333333333333</ele><time>2026-03-23T13:29:53.206Z</time></trkpt><trkpt lat="42.4978004" lon="12.4417831"><ele>255.66666666666669</ele><time>2026-03-23T13:29:55.206Z</time></trkpt><trkpt lat="42.4978412" lon="12.441885"><ele>254.5</ele><time>2026-03-23T13:29:57.206Z</time></trkpt><trkpt lat="42.4978852" lon="12.4419822"><ele>253.33333333333334</ele><time>2026-03-23T13:29:59.206Z</time></trkpt><trkpt lat="42.497931" lon="12.4420856"><ele>252.16666666666669</ele><time>2026-03-23T13:30:01.206Z</time></trkpt><trkpt lat="42.4979798" lon="12.4421833"><ele>251.0</ele><time>2026-03-23T13:30:03.207Z</time></trkpt><trkpt lat="42.4980313" lon="12.442296"><ele>250.4</ele><time>2026-03-23T13:30:05.206Z</time></trkpt><trkpt lat="42.4980872" lon="12.4424157"><ele>249.8</ele><time>2026-03-23T13:30:07.206Z</time></trkpt><trkpt lat="42.49814" lon="12.4425226"><ele>249.20000000000002</ele><time>2026-03-23T13:30:09.207Z</time></trkpt><trkpt lat="42.4981858" lon="12.4426395"><ele>248.60000000000002</ele><time>2026-03-23T13:30:11.206Z</time></trkpt><trkpt lat="42.4982296" lon="12.4427527"><ele>248.0</ele><time>2026-03-23T13:30:13.207Z</time></trkpt><trkpt lat="42.4982823" lon="12.4428623"><ele>247.2</ele><time>2026-03-23T13:30:15.206Z</time></trkpt><trkpt lat="42.4983371" lon="12.4429729"><ele>246.4</ele><time>2026-03-23T13:30:17.206Z</time></trkpt><trkpt lat="42.4983895" lon="12.443091"><ele>245.59999999999997</ele><time>2026-03-23T13:30:19.206Z</time></trkpt><trkpt lat="42.4984416" lon="12.4432101"><ele>244.79999999999998</ele><time>2026-03-23T13:30:21.206Z</time></trkpt><trkpt lat="42.4984803" lon="12.4433345"><ele>244.0</ele><time>2026-03-23T13:30:23.206Z</time></trkpt><trkpt lat="42.4985157" lon="12.4434662"><ele>244.0</ele><time>2026-03-23T13:30:25.207Z</time></trkpt><trkpt lat="42.4985409" lon="12.4436021"><ele>243.99999999999997</ele><time>2026-03-23T13:30:27.206Z</time></trkpt><trkpt lat="42.4985685" lon="12.4437393"><ele>243.99999999999997</ele><time>2026-03-23T13:30:29.208Z</time></trkpt><trkpt lat="42.49858" lon="12.4438813"><ele>244.0</ele><time>2026-03-23T13:30:31.206Z</time></trkpt><trkpt lat="42.4985946" lon="12.4440256"><ele>244.0</ele><time>2026-03-23T13:30:33.206Z</time></trkpt><trkpt lat="42.4986008" lon="12.4441388"><ele>242.66666666666666</ele><time>2026-03-23T13:30:35.206Z</time></trkpt><trkpt lat="42.4986124" lon="12.4442431"><ele>241.33333333333331</ele><time>2026-03-23T13:30:37.206Z</time></trkpt><trkpt lat="42.4986208" lon="12.4443632"><ele>240.0</ele><time>2026-03-23T13:30:39.207Z</time></trkpt><trkpt lat="42.4986369" lon="12.4444798"><ele>238.66666666666669</ele><time>2026-03-23T13:30:41.207Z</time></trkpt><trkpt lat="42.4986393" lon="12.4446114"><ele>237.33333333333334</ele><time>2026-03-23T13:30:43.206Z</time></trkpt><trkpt lat="42.4986245" lon="12.4447295"><ele>236.0</ele><time>2026-03-23T13:30:45.207Z</time></trkpt><trkpt lat="42.4985954" lon="12.4448434"><ele>235.33333333333334</ele><time>2026-03-23T13:30:47.207Z</time></trkpt><trkpt lat="42.4985674" lon="12.4449602"><ele>234.66666666666669</ele><time>2026-03-23T13:30:49.206Z</time></trkpt><trkpt lat="42.4985384" lon="12.4450694"><ele>234.0</ele><time>2026-03-23T13:30:51.206Z</time></trkpt><trkpt lat="42.4985064" lon="12.4451815"><ele>233.33333333333331</ele><time>2026-03-23T13:30:53.207Z</time></trkpt><trkpt lat="42.4984766" lon="12.4452924"><ele>232.66666666666666</ele><time>2026-03-23T13:30:55.207Z</time></trkpt><trkpt lat="42.4984467" lon="12.4454063"><ele>232.0</ele><time>2026-03-23T13:30:57.207Z</time></trkpt><trkpt lat="42.4984139" lon="12.4455187"><ele>231.6</ele><time>2026-03-23T13:30:59.207Z</time></trkpt><trkpt lat="42.4983817" lon="12.4456358"><ele>231.2</ele><time>2026-03-23T13:31:01.206Z</time></trkpt><trkpt lat="42.498383" lon="12.4457527"><ele>230.8</ele><time>2026-03-23T13:31:03.207Z</time></trkpt><trkpt lat="42.4984214" lon="12.4458558"><ele>230.4</ele><time>2026-03-23T13:31:05.207Z</time></trkpt><trkpt lat="42.4984839" lon="12.4459518"><ele>230.0</ele><time>2026-03-23T13:31:07.206Z</time></trkpt><trkpt lat="42.4985651" lon="12.4460237"><ele>230.0</ele><time>2026-03-23T13:31:09.207Z</time></trkpt><trkpt lat="42.4986596" lon="12.4460835"><ele>230.0</ele><time>2026-03-23T13:31:11.206Z</time></trkpt><trkpt lat="42.4987713" lon="12.4461221"><ele>230.0</ele><time>2026-03-23T13:31:13.207Z</time></trkpt><trkpt lat="42.4988844" lon="12.4461545"><ele>230.0</ele><time>2026-03-23T13:31:15.206Z</time></trkpt><trkpt lat="42.4989943" lon="12.446195"><ele>230.0</ele><time>2026-03-23T13:31:17.206Z</time></trkpt><trkpt lat="42.4990938" lon="12.4462305"><ele>229.6</ele><time>2026-03-23T13:31:19.207Z</time></trkpt><trkpt lat="42.4991992" lon="12.4462852"><ele>229.2</ele><time>2026-03-23T13:31:21.207Z</time></trkpt><trkpt lat="42.4993101" lon="12.4463527"><ele>228.8</ele><time>2026-03-23T13:31:23.206Z</time></trkpt><trkpt lat="42.4994228" lon="12.4464292"><ele>228.4</ele><time>2026-03-23T13:31:25.206Z</time></trkpt><trkpt lat="42.4994811" lon="12.4464683"><ele>228.0</ele><time>2026-03-23T13:31:26.206Z</time></trkpt><trkpt lat="42.4995896" lon="12.4465466"><ele>226.5</ele><time>2026-03-23T13:31:28.206Z</time></trkpt><trkpt lat="42.4996998" lon="12.4466392"><ele>225.0</ele><time>2026-03-23T13:31:30.206Z</time></trkpt><trkpt lat="42.4997635" lon="12.4466828"><ele>223.5</ele><time>2026-03-23T13:31:31.207Z</time></trkpt><trkpt lat="42.4998261" lon="12.4467206"><ele>222.0</ele><time>2026-03-23T13:31:32.206Z</time></trkpt><trkpt lat="42.4998938" lon="12.4467682"><ele>220.5</ele><time>2026-03-23T13:31:33.206Z</time></trkpt><trkpt lat="42.4999531" lon="12.4468165"><ele>219.0</ele><time>2026-03-23T13:31:34.206Z</time></trkpt><trkpt lat="42.5000122" lon="12.4468587"><ele>219.0</ele><time>2026-03-23T13:31:35.206Z</time></trkpt><trkpt lat="42.5000739" lon="12.4468989"><ele>219.0</ele><time>2026-03-23T13:31:36.207Z</time></trkpt><trkpt lat="42.5001335" lon="12.4469348"><ele>219.0</ele><time>2026-03-23T13:31:37.208Z</time></trkpt><trkpt lat="42.500195" lon="12.4469692"><ele>219.0</ele><time>2026-03-23T13:31:38.207Z</time></trkpt><trkpt lat="42.5002562" lon="12.447007"><ele>219.0</ele><time>2026-03-23T13:31:39.207Z</time></trkpt><trkpt lat="42.5003215" lon="12.4470533"><ele>219.0</ele><time>2026-03-23T13:31:40.207Z</time></trkpt><trkpt lat="42.500386" lon="12.4470939"><ele>219.0</ele><time>2026-03-23T13:31:41.206Z</time></trkpt><trkpt lat="42.5004526" lon="12.4471317"><ele>218.83333333333334</ele><time>2026-03-23T13:31:42.206Z</time></trkpt><trkpt lat="42.5005213" lon="12.4471721"><ele>218.66666666666669</ele><time>2026-03-23T13:31:43.207Z</time></trkpt><trkpt lat="42.5005869" lon="12.4472133"><ele>218.5</ele><time>2026-03-23T13:31:44.206Z</time></trkpt><trkpt lat="42.5006565" lon="12.4472543"><ele>218.33333333333334</ele><time>2026-03-23T13:31:45.207Z</time></trkpt><trkpt lat="42.5007304" lon="12.4473076"><ele>218.16666666666669</ele><time>2026-03-23T13:31:46.206Z</time></trkpt><trkpt lat="42.5008058" lon="12.4473625"><ele>218.0</ele><time>2026-03-23T13:31:47.207Z</time></trkpt><trkpt lat="42.5008831" lon="12.4474249"><ele>218.00000000000003</ele><time>2026-03-23T13:31:48.206Z</time></trkpt><trkpt lat="42.500952" lon="12.4474858"><ele>218.0</ele><time>2026-03-23T13:31:49.207Z</time></trkpt><trkpt lat="42.5010162" lon="12.4475476"><ele>218.0</ele><time>2026-03-23T13:31:50.207Z</time></trkpt><trkpt lat="42.5010781" lon="12.4476123"><ele>218.0</ele><time>2026-03-23T13:31:51.206Z</time></trkpt><trkpt lat="42.5011425" lon="12.4476777"><ele>218.00000000000003</ele><time>2026-03-23T13:31:52.206Z</time></trkpt><trkpt lat="42.5012016" lon="12.4477505"><ele>218.0</ele><time>2026-03-23T13:31:53.207Z</time></trkpt><trkpt lat="42.5012582" lon="12.4478177"><ele>217.85714285714286</ele><time>2026-03-23T13:31:54.207Z</time></trkpt><trkpt lat="42.5013127" lon="12.4478806"><ele>217.71428571428572</ele><time>2026-03-23T13:31:55.207Z</time></trkpt><trkpt lat="42.5013664" lon="12.4479484"><ele>217.57142857142856</ele><time>2026-03-23T13:31:56.208Z</time></trkpt><trkpt lat="42.5014207" lon="12.4480179"><ele>217.42857142857144</ele><time>2026-03-23T13:31:57.207Z</time></trkpt><trkpt lat="42.5014761" lon="12.4480853"><ele>217.28571428571428</ele><time>2026-03-23T13:31:58.206Z</time></trkpt><trkpt lat="42.5015306" lon="12.4481489"><ele>217.14285714285714</ele><time>2026-03-23T13:31:59.206Z</time></trkpt><trkpt lat="42.5015823" lon="12.448212"><ele>217.0</ele><time>2026-03-23T13:32:00.207Z</time></trkpt><trkpt lat="42.5016243" lon="12.4482839"><ele>216.85714285714286</ele><time>2026-03-23T13:32:01.206Z</time></trkpt><trkpt lat="42.5016637" lon="12.448363"><ele>216.71428571428572</ele><time>2026-03-23T13:32:02.206Z</time></trkpt><trkpt lat="42.501699" lon="12.4484527"><ele>216.57142857142856</ele><time>2026-03-23T13:32:03.206Z</time></trkpt><trkpt lat="42.5017328" lon="12.4485491"><ele>216.42857142857144</ele><time>2026-03-23T13:32:04.208Z</time></trkpt><trkpt lat="42.5017653" lon="12.4486428"><ele>216.28571428571428</ele><time>2026-03-23T13:32:05.207Z</time></trkpt><trkpt lat="42.501793" lon="12.4487332"><ele>216.14285714285714</ele><time>2026-03-23T13:32:06.207Z</time></trkpt><trkpt lat="42.5018213" lon="12.4488216"><ele>216.0</ele><time>2026-03-23T13:32:07.207Z</time></trkpt><trkpt lat="42.501848" lon="12.4489113"><ele>216.0</ele><time>2026-03-23T13:32:08.206Z</time></trkpt><trkpt lat="42.5018683" lon="12.4490034"><ele>216.0</ele><time>2026-03-23T13:32:09.206Z</time></trkpt><trkpt lat="42.5018871" lon="12.449092"><ele>216.0</ele><time>2026-03-23T13:32:10.207Z</time></trkpt><trkpt lat="42.5019026" lon="12.4491841"><ele>216.0</ele><time>2026-03-23T13:32:11.207Z</time></trkpt><trkpt lat="42.501921" lon="12.449274"><ele>216.0</ele><time>2026-03-23T13:32:12.207Z</time></trkpt><trkpt lat="42.5019399" lon="12.4493612"><ele>216.0</ele><time>2026-03-23T13:32:13.207Z</time></trkpt><trkpt lat="42.5019587" lon="12.4494537"><ele>216.0</ele><time>2026-03-23T13:32:14.206Z</time></trkpt><trkpt lat="42.5019772" lon="12.4495443"><ele>215.42857142857142</ele><time>2026-03-23T13:32:15.206Z</time></trkpt><trkpt lat="42.5019987" lon="12.4496358"><ele>214.85714285714283</ele><time>2026-03-23T13:32:16.208Z</time></trkpt><trkpt lat="42.5020192" lon="12.4497341"><ele>214.28571428571428</ele><time>2026-03-23T13:32:17.207Z</time></trkpt><trkpt lat="42.5020396" lon="12.4498277"><ele>213.71428571428572</ele><time>2026-03-23T13:32:18.206Z</time></trkpt><trkpt lat="42.5020602" lon="12.4499173"><ele>213.14285714285714</ele><time>2026-03-23T13:32:19.206Z</time></trkpt><trkpt lat="42.5020782" lon="12.450011"><ele>212.57142857142858</ele><time>2026-03-23T13:32:20.207Z</time></trkpt><trkpt lat="42.5020966" lon="12.4501011"><ele>212.0</ele><time>2026-03-23T13:32:21.206Z</time></trkpt><trkpt lat="42.5021251" lon="12.4502602"><ele>212.0</ele><time>2026-03-23T13:32:23.207Z</time></trkpt><trkpt lat="42.502147" lon="12.4504089"><ele>212.0</ele><time>2026-03-23T13:32:25.206Z</time></trkpt><trkpt lat="42.5021607" lon="12.4505396"><ele>212.0</ele><time>2026-03-23T13:32:27.206Z</time></trkpt><trkpt lat="42.5021696" lon="12.4506464"><ele>212.0</ele><time>2026-03-23T13:32:29.206Z</time></trkpt><trkpt lat="42.5021774" lon="12.4507548"><ele>212.0</ele><time>2026-03-23T13:32:32.208Z</time></trkpt><trkpt lat="42.502267" lon="12.4508773"><ele>212.33333333333334</ele><time>2026-03-23T13:39:29.206Z</time></trkpt><trkpt lat="42.5023019" lon="12.4509514"><ele>212.66666666666669</ele><time>2026-03-23T13:39:30.205Z</time></trkpt><trkpt lat="42.5023672" lon="12.4510467"><ele>213.0</ele><time>2026-03-23T13:39:32.204Z</time></trkpt><trkpt lat="42.5024504" lon="12.4511433"><ele>213.33333333333331</ele><time>2026-03-23T13:39:34.204Z</time></trkpt><trkpt lat="42.5025032" lon="12.4512014"><ele>213.66666666666666</ele><time>2026-03-23T13:39:35.204Z</time></trkpt><trkpt lat="42.5025609" lon="12.4512568"><ele>214.0</ele><time>2026-03-23T13:39:36.204Z</time></trkpt><trkpt lat="42.5026139" lon="12.4513156"><ele>214.2857142857143</ele><time>2026-03-23T13:39:37.204Z</time></trkpt><trkpt lat="42.5026684" lon="12.4513692"><ele>214.57142857142858</ele><time>2026-03-23T13:39:38.204Z</time></trkpt><trkpt lat="42.5027305" lon="12.4514247"><ele>214.85714285714286</ele><time>2026-03-23T13:39:39.204Z</time></trkpt><trkpt lat="42.5027931" lon="12.4514838"><ele>215.14285714285717</ele><time>2026-03-23T13:39:40.204Z</time></trkpt><trkpt lat="42.5028523" lon="12.4515388"><ele>215.42857142857142</ele><time>2026-03-23T13:39:41.204Z</time></trkpt><trkpt lat="42.5029132" lon="12.4515863"><ele>215.71428571428572</ele><time>2026-03-23T13:39:42.205Z</time></trkpt><trkpt lat="42.5029737" lon="12.4516318"><ele>216.0</ele><time>2026-03-23T13:39:43.205Z</time></trkpt><trkpt lat="42.5030398" lon="12.451683"><ele>216.0</ele><time>2026-03-23T13:39:44.204Z</time></trkpt><trkpt lat="42.5031013" lon="12.4517397"><ele>216.0</ele><time>2026-03-23T13:39:45.204Z</time></trkpt><trkpt lat="42.5031636" lon="12.4517992"><ele>216.0</ele><time>2026-03-23T13:39:46.205Z</time></trkpt><trkpt lat="42.5032259" lon="12.4518636"><ele>216.0</ele><time>2026-03-23T13:39:47.204Z</time></trkpt><trkpt lat="42.503289" lon="12.4519285"><ele>216.0</ele><time>2026-03-23T13:39:48.204Z</time></trkpt><trkpt lat="42.5033517" lon="12.4519933"><ele>216.0</ele><time>2026-03-23T13:39:49.204Z</time></trkpt><trkpt lat="42.503407" lon="12.4520573"><ele>216.0</ele><time>2026-03-23T13:39:50.205Z</time></trkpt><trkpt lat="42.5034584" lon="12.4521198"><ele>216.0</ele><time>2026-03-23T13:39:51.204Z</time></trkpt><trkpt lat="42.5035142" lon="12.452187"><ele>216.0</ele><time>2026-03-23T13:39:52.204Z</time></trkpt><trkpt lat="42.5035661" lon="12.4522431"><ele>216.0</ele><time>2026-03-23T13:39:53.205Z</time></trkpt><trkpt lat="42.5036156" lon="12.4522964"><ele>216.0</ele><time>2026-03-23T13:39:54.205Z</time></trkpt><trkpt lat="42.5037145" lon="12.4523986"><ele>216.0</ele><time>2026-03-23T13:39:56.204Z</time></trkpt><trkpt lat="42.5038137" lon="12.4524556"><ele>216.5</ele><time>2026-03-23T13:39:58.205Z</time></trkpt><trkpt lat="42.5038859" lon="12.4524589"><ele>217.0</ele><time>2026-03-23T13:39:59.205Z</time></trkpt><trkpt lat="42.5039579" lon="12.4524547"><ele>217.5</ele><time>2026-03-23T13:40:00.204Z</time></trkpt><trkpt lat="42.5040309" lon="12.4524467"><ele>218.0</ele><time>2026-03-23T13:40:01.205Z</time></trkpt><trkpt lat="42.5041034" lon="12.4524188"><ele>218.5</ele><time>2026-03-23T13:40:02.204Z</time></trkpt><trkpt lat="42.5041808" lon="12.4523838"><ele>219.0</ele><time>2026-03-23T13:40:03.204Z</time></trkpt><trkpt lat="42.5042637" lon="12.4523415"><ele>219.0</ele><time>2026-03-23T13:40:04.204Z</time></trkpt><trkpt lat="42.5043496" lon="12.4523048"><ele>219.0</ele><time>2026-03-23T13:40:05.205Z</time></trkpt><trkpt lat="42.5044362" lon="12.4522692"><ele>219.0</ele><time>2026-03-23T13:40:06.205Z</time></trkpt><trkpt lat="42.5045184" lon="12.4522296"><ele>219.0</ele><time>2026-03-23T13:40:07.205Z</time></trkpt><trkpt lat="42.504598" lon="12.4521883"><ele>219.0</ele><time>2026-03-23T13:40:08.204Z</time></trkpt><trkpt lat="42.504685" lon="12.4521367"><ele>219.0</ele><time>2026-03-23T13:40:09.204Z</time></trkpt><trkpt lat="42.50477" lon="12.4520789"><ele>219.0</ele><time>2026-03-23T13:40:10.205Z</time></trkpt><trkpt lat="42.504848" lon="12.4520181"><ele>219.0</ele><time>2026-03-23T13:40:11.204Z</time></trkpt><trkpt lat="42.5049267" lon="12.4519704"><ele>219.0</ele><time>2026-03-23T13:40:12.205Z</time></trkpt><trkpt lat="42.5050029" lon="12.4519193"><ele>219.0</ele><time>2026-03-23T13:40:13.204Z</time></trkpt><trkpt lat="42.5050649" lon="12.4518677"><ele>219.0</ele><time>2026-03-23T13:40:14.204Z</time></trkpt><trkpt lat="42.5051226" lon="12.4518287"><ele>219.0</ele><time>2026-03-23T13:40:15.205Z</time></trkpt><trkpt lat="42.5052311" lon="12.4517477"><ele>219.0</ele><time>2026-03-23T13:40:17.205Z</time></trkpt><trkpt lat="42.5052912" lon="12.4517046"><ele>219.0</ele><time>2026-03-23T13:40:18.204Z</time></trkpt><trkpt lat="42.5053556" lon="12.4516555"><ele>219.0</ele><time>2026-03-23T13:40:19.204Z</time></trkpt><trkpt lat="42.5054253" lon="12.4516085"><ele>219.0</ele><time>2026-03-23T13:40:20.204Z</time></trkpt><trkpt lat="42.5054989" lon="12.4515638"><ele>219.0</ele><time>2026-03-23T13:40:21.205Z</time></trkpt><trkpt lat="42.5055776" lon="12.4515252"><ele>219.0</ele><time>2026-03-23T13:40:22.204Z</time></trkpt><trkpt lat="42.5056538" lon="12.4514931"><ele>220.85714285714286</ele><time>2026-03-23T13:40:23.204Z</time></trkpt><trkpt lat="42.5057255" lon="12.4514726"><ele>222.71428571428572</ele><time>2026-03-23T13:40:24.204Z</time></trkpt><trkpt lat="42.5057992" lon="12.4514507"><ele>224.57142857142858</ele><time>2026-03-23T13:40:25.205Z</time></trkpt><trkpt lat="42.5058696" lon="12.4514381"><ele>226.42857142857144</ele><time>2026-03-23T13:40:26.205Z</time></trkpt><trkpt lat="42.505941" lon="12.4514222"><ele>228.28571428571428</ele><time>2026-03-23T13:40:27.204Z</time></trkpt><trkpt lat="42.5060164" lon="12.451405"><ele>230.14285714285717</ele><time>2026-03-23T13:40:28.204Z</time></trkpt><trkpt lat="42.5060901" lon="12.4513918"><ele>232.00000000000003</ele><time>2026-03-23T13:40:29.204Z</time></trkpt><trkpt lat="42.5061631" lon="12.4513846"><ele>231.99999999999997</ele><time>2026-03-23T13:40:30.205Z</time></trkpt><trkpt lat="42.5062382" lon="12.4513876"><ele>232.0</ele><time>2026-03-23T13:40:31.204Z</time></trkpt><trkpt lat="42.5063153" lon="12.4513998"><ele>232.0</ele><time>2026-03-23T13:40:32.204Z</time></trkpt><trkpt lat="42.5063942" lon="12.4514225"><ele>232.0</ele><time>2026-03-23T13:40:33.205Z</time></trkpt><trkpt lat="42.5064762" lon="12.451462"><ele>231.99999999999997</ele><time>2026-03-23T13:40:34.205Z</time></trkpt><trkpt lat="42.5065534" lon="12.451513"><ele>232.0</ele><time>2026-03-23T13:40:35.204Z</time></trkpt><trkpt lat="42.5066218" lon="12.4515677"><ele>232.5714285714286</ele><time>2026-03-23T13:40:36.205Z</time></trkpt><trkpt lat="42.5066794" lon="12.4516208"><ele>233.14285714285717</ele><time>2026-03-23T13:40:37.204Z</time></trkpt><trkpt lat="42.5067422" lon="12.4516768"><ele>233.71428571428572</ele><time>2026-03-23T13:40:38.204Z</time></trkpt><trkpt lat="42.5068063" lon="12.4517353"><ele>234.2857142857143</ele><time>2026-03-23T13:40:39.204Z</time></trkpt><trkpt lat="42.5068657" lon="12.4517877"><ele>234.8571428571429</ele><time>2026-03-23T13:40:40.204Z</time></trkpt><trkpt lat="42.5069237" lon="12.451838"><ele>235.42857142857142</ele><time>2026-03-23T13:40:41.205Z</time></trkpt><trkpt lat="42.5069908" lon="12.4518849"><ele>236.0</ele><time>2026-03-23T13:40:42.205Z</time></trkpt><trkpt lat="42.5070572" lon="12.4519381"><ele>235.71428571428572</ele><time>2026-03-23T13:40:43.204Z</time></trkpt><trkpt lat="42.507123" lon="12.4519953"><ele>235.42857142857144</ele><time>2026-03-23T13:40:44.205Z</time></trkpt><trkpt lat="42.5071848" lon="12.4520519"><ele>235.14285714285717</ele><time>2026-03-23T13:40:45.205Z</time></trkpt><trkpt lat="42.5072449" lon="12.4521041"><ele>234.85714285714286</ele><time>2026-03-23T13:40:46.204Z</time></trkpt><trkpt lat="42.5072979" lon="12.4521631"><ele>234.5714285714286</ele><time>2026-03-23T13:40:47.205Z</time></trkpt><trkpt lat="42.5073553" lon="12.4522254"><ele>234.2857142857143</ele><time>2026-03-23T13:40:48.204Z</time></trkpt><trkpt lat="42.5074116" lon="12.4522813"><ele>234.0</ele><time>2026-03-23T13:40:49.204Z</time></trkpt><trkpt lat="42.5074683" lon="12.4523354"><ele>234.85714285714286</ele><time>2026-03-23T13:40:50.204Z</time></trkpt><trkpt lat="42.5075238" lon="12.4523917"><ele>235.71428571428572</ele><time>2026-03-23T13:40:51.204Z</time></trkpt><trkpt lat="42.507575" lon="12.4524463"><ele>236.57142857142858</ele><time>2026-03-23T13:40:52.205Z</time></trkpt><trkpt lat="42.5076347" lon="12.4524982"><ele>237.42857142857144</ele><time>2026-03-23T13:40:53.204Z</time></trkpt><trkpt lat="42.5076913" lon="12.452546"><ele>238.28571428571428</ele><time>2026-03-23T13:40:54.205Z</time></trkpt><trkpt lat="42.5077524" lon="12.4525951"><ele>239.14285714285717</ele><time>2026-03-23T13:40:55.205Z</time></trkpt><trkpt lat="42.5078141" lon="12.4526432"><ele>240.0</ele><time>2026-03-23T13:40:56.205Z</time></trkpt><trkpt lat="42.507867" lon="12.4526912"><ele>238.4</ele><time>2026-03-23T13:40:57.205Z</time></trkpt><trkpt lat="42.5079633" lon="12.452772"><ele>236.8</ele><time>2026-03-23T13:40:59.205Z</time></trkpt><trkpt lat="42.508052" lon="12.4528527"><ele>235.2</ele><time>2026-03-23T13:41:01.204Z</time></trkpt><trkpt lat="42.5081261" lon="12.4529131"><ele>233.6</ele><time>2026-03-23T13:41:03.205Z</time></trkpt><trkpt lat="42.5081893" lon="12.4529731"><ele>232.0</ele><time>2026-03-23T13:41:05.204Z</time></trkpt><trkpt lat="42.5082521" lon="12.4530457"><ele>232.0</ele><time>2026-03-23T13:41:07.204Z</time></trkpt><trkpt lat="42.5083301" lon="12.4531222"><ele>232.0</ele><time>2026-03-23T13:41:09.204Z</time></trkpt><trkpt lat="42.5083993" lon="12.4531976"><ele>232.0</ele><time>2026-03-23T13:41:11.205Z</time></trkpt><trkpt lat="42.5084787" lon="12.4532814"><ele>232.0</ele><time>2026-03-23T13:41:13.204Z</time></trkpt><trkpt lat="42.508564" lon="12.4533896"><ele>232.0</ele><time>2026-03-23T13:41:15.205Z</time></trkpt><trkpt lat="42.508606" lon="12.4534539"><ele>232.00000000000003</ele><time>2026-03-23T13:41:16.205Z</time></trkpt><trkpt lat="42.5086469" lon="12.4535219"><ele>232.0</ele><time>2026-03-23T13:41:17.204Z</time></trkpt><trkpt lat="42.5086876" lon="12.4535914"><ele>232.00000000000003</ele><time>2026-03-23T13:41:18.205Z</time></trkpt><trkpt lat="42.5087221" lon="12.4536739"><ele>232.00000000000003</ele><time>2026-03-23T13:41:19.205Z</time></trkpt><trkpt lat="42.5087541" lon="12.4537628"><ele>232.0</ele><time>2026-03-23T13:41:20.204Z</time></trkpt><trkpt lat="42.5087806" lon="12.4538542"><ele>232.00000000000003</ele><time>2026-03-23T13:41:21.204Z</time></trkpt><trkpt lat="42.5088025" lon="12.4539535"><ele>232.00000000000003</ele><time>2026-03-23T13:41:22.205Z</time></trkpt><trkpt lat="42.5088171" lon="12.4540572"><ele>227.66666666666666</ele><time>2026-03-23T13:41:23.204Z</time></trkpt><trkpt lat="42.5088212" lon="12.4541602"><ele>223.33333333333331</ele><time>2026-03-23T13:41:24.204Z</time></trkpt><trkpt lat="42.5088272" lon="12.4542581"><ele>219.0</ele><time>2026-03-23T13:41:25.206Z</time></trkpt><trkpt lat="42.5088324" lon="12.4543646"><ele>214.66666666666669</ele><time>2026-03-23T13:41:26.205Z</time></trkpt><trkpt lat="42.5088278" lon="12.454473"><ele>210.33333333333334</ele><time>2026-03-23T13:41:27.204Z</time></trkpt><trkpt lat="42.5088155" lon="12.4545944"><ele>206.0</ele><time>2026-03-23T13:41:28.204Z</time></trkpt><trkpt lat="42.5088053" lon="12.4547281"><ele>205.83333333333334</ele><time>2026-03-23T13:41:29.204Z</time></trkpt><trkpt lat="42.5087979" lon="12.4548746"><ele>205.66666666666669</ele><time>2026-03-23T13:41:30.205Z</time></trkpt><trkpt lat="42.5087917" lon="12.4549983"><ele>205.5</ele><time>2026-03-23T13:41:31.204Z</time></trkpt><trkpt lat="42.5087799" lon="12.4551077"><ele>205.33333333333331</ele><time>2026-03-23T13:41:32.205Z</time></trkpt><trkpt lat="42.5087679" lon="12.4552113"><ele>205.16666666666666</ele><time>2026-03-23T13:41:33.205Z</time></trkpt><trkpt lat="42.5087545" lon="12.4553008"><ele>205.0</ele><time>2026-03-23T13:41:34.204Z</time></trkpt><trkpt lat="42.5087422" lon="12.4553969"><ele>207.0</ele><time>2026-03-23T13:41:35.204Z</time></trkpt><trkpt lat="42.5087197" lon="12.455543"><ele>209.0</ele><time>2026-03-23T13:41:37.204Z</time></trkpt><trkpt lat="42.5086981" lon="12.4556603"><ele>211.0</ele><time>2026-03-23T13:41:39.203Z</time></trkpt><trkpt lat="42.5086862" lon="12.4558148"><ele>213.0</ele><time>2026-03-23T13:41:41.204Z</time></trkpt><trkpt lat="42.5086888" lon="12.455912"><ele>215.0</ele><time>2026-03-23T13:41:42.203Z</time></trkpt><trkpt lat="42.5086966" lon="12.4560072"><ele>215.00000000000003</ele><time>2026-03-23T13:41:43.203Z</time></trkpt><trkpt lat="42.5087111" lon="12.456112"><ele>215.0</ele><time>2026-03-23T13:41:44.203Z</time></trkpt><trkpt lat="42.5087244" lon="12.4562273"><ele>215.0</ele><time>2026-03-23T13:41:45.203Z</time></trkpt><trkpt lat="42.5087378" lon="12.4563503"><ele>215.0</ele><time>2026-03-23T13:41:46.203Z</time></trkpt><trkpt lat="42.5087534" lon="12.4564699"><ele>215.00000000000003</ele><time>2026-03-23T13:41:47.204Z</time></trkpt><trkpt lat="42.5087654" lon="12.4565903"><ele>215.0</ele><time>2026-03-23T13:41:48.204Z</time></trkpt><trkpt lat="42.5087734" lon="12.4567093"><ele>215.16666666666669</ele><time>2026-03-23T13:41:49.204Z</time></trkpt><trkpt lat="42.5087844" lon="12.4568255"><ele>215.33333333333334</ele><time>2026-03-23T13:41:50.204Z</time></trkpt><trkpt lat="42.5087939" lon="12.45694"><ele>215.5</ele><time>2026-03-23T13:41:51.204Z</time></trkpt><trkpt lat="42.5088052" lon="12.4570545"><ele>215.66666666666669</ele><time>2026-03-23T13:41:52.204Z</time></trkpt><trkpt lat="42.5088151" lon="12.4571643"><ele>215.83333333333334</ele><time>2026-03-23T13:41:53.203Z</time></trkpt><trkpt lat="42.5088282" lon="12.4572687"><ele>216.0</ele><time>2026-03-23T13:41:54.204Z</time></trkpt><trkpt lat="42.5088438" lon="12.4573745"><ele>216.0</ele><time>2026-03-23T13:41:55.204Z</time></trkpt><trkpt lat="42.5088613" lon="12.4574767"><ele>216.0</ele><time>2026-03-23T13:41:56.204Z</time></trkpt><trkpt lat="42.5088832" lon="12.4575705"><ele>216.0</ele><time>2026-03-23T13:41:57.204Z</time></trkpt><trkpt lat="42.5089095" lon="12.4576675"><ele>216.0</ele><time>2026-03-23T13:41:58.203Z</time></trkpt><trkpt lat="42.5089458" lon="12.4577626"><ele>216.0</ele><time>2026-03-23T13:41:59.203Z</time></trkpt><trkpt lat="42.5089821" lon="12.4578586"><ele>216.0</ele><time>2026-03-23T13:42:00.204Z</time></trkpt><trkpt lat="42.5090171" lon="12.4579633"><ele>216.4</ele><time>2026-03-23T13:42:01.205Z</time></trkpt><trkpt lat="42.5090598" lon="12.4580657"><ele>216.8</ele><time>2026-03-23T13:42:02.204Z</time></trkpt><trkpt lat="42.5091054" lon="12.4581731"><ele>217.20000000000002</ele><time>2026-03-23T13:42:03.203Z</time></trkpt><trkpt lat="42.5091521" lon="12.4582839"><ele>217.60000000000002</ele><time>2026-03-23T13:42:04.203Z</time></trkpt><trkpt lat="42.5091959" lon="12.4583908"><ele>218.0</ele><time>2026-03-23T13:42:05.203Z</time></trkpt><trkpt lat="42.5092393" lon="12.4584935"><ele>218.0</ele><time>2026-03-23T13:42:06.203Z</time></trkpt><trkpt lat="42.5092927" lon="12.4585945"><ele>218.0</ele><time>2026-03-23T13:42:07.204Z</time></trkpt><trkpt lat="42.5093503" lon="12.4586881"><ele>218.0</ele><time>2026-03-23T13:42:08.203Z</time></trkpt><trkpt lat="42.5094153" lon="12.4587896"><ele>218.0</ele><time>2026-03-23T13:42:09.203Z</time></trkpt><trkpt lat="42.5094828" lon="12.4588909"><ele>218.0</ele><time>2026-03-23T13:42:10.203Z</time></trkpt><trkpt lat="42.5095409" lon="12.4589787"><ele>219.8</ele><time>2026-03-23T13:42:11.204Z</time></trkpt><trkpt lat="42.5095942" lon="12.4590612"><ele>221.60000000000002</ele><time>2026-03-23T13:42:12.204Z</time></trkpt><trkpt lat="42.5096521" lon="12.4591488"><ele>223.39999999999998</ele><time>2026-03-23T13:42:13.203Z</time></trkpt><trkpt lat="42.5097158" lon="12.4592418"><ele>225.2</ele><time>2026-03-23T13:42:14.204Z</time></trkpt><trkpt lat="42.5097915" lon="12.4593406"><ele>227.0</ele><time>2026-03-23T13:42:15.203Z</time></trkpt><trkpt lat="42.5098588" lon="12.459427"><ele>227.00000000000003</ele><time>2026-03-23T13:42:16.203Z</time></trkpt><trkpt lat="42.5099233" lon="12.4595015"><ele>227.0</ele><time>2026-03-23T13:42:17.203Z</time></trkpt><trkpt lat="42.5099909" lon="12.4595776"><ele>227.0</ele><time>2026-03-23T13:42:18.204Z</time></trkpt><trkpt lat="42.5100574" lon="12.4596579"><ele>227.0</ele><time>2026-03-23T13:42:19.203Z</time></trkpt><trkpt lat="42.5101297" lon="12.4597265"><ele>227.00000000000003</ele><time>2026-03-23T13:42:20.204Z</time></trkpt><trkpt lat="42.5101946" lon="12.4597809"><ele>227.0</ele><time>2026-03-23T13:42:21.205Z</time></trkpt><trkpt lat="42.510255" lon="12.459822"><ele>227.6</ele><time>2026-03-23T13:42:22.204Z</time></trkpt><trkpt lat="42.5103174" lon="12.4598689"><ele>228.2</ele><time>2026-03-23T13:42:23.203Z</time></trkpt><trkpt lat="42.5103725" lon="12.4599208"><ele>228.8</ele><time>2026-03-23T13:42:24.203Z</time></trkpt><trkpt lat="42.5104661" lon="12.4600056"><ele>229.4</ele><time>2026-03-23T13:42:26.204Z</time></trkpt><trkpt lat="42.5105667" lon="12.4601154"><ele>230.0</ele><time>2026-03-23T13:42:28.203Z</time></trkpt><trkpt lat="42.5106355" lon="12.4602608"><ele>230.00000000000003</ele><time>2026-03-23T13:42:30.203Z</time></trkpt><trkpt lat="42.5106581" lon="12.4603614"><ele>230.0</ele><time>2026-03-23T13:42:31.203Z</time></trkpt><trkpt lat="42.5106783" lon="12.4604616"><ele>230.0</ele><time>2026-03-23T13:42:32.203Z</time></trkpt><trkpt lat="42.5107023" lon="12.4605646"><ele>230.0</ele><time>2026-03-23T13:42:33.205Z</time></trkpt><trkpt lat="42.5107295" lon="12.4606754"><ele>230.00000000000003</ele><time>2026-03-23T13:42:34.204Z</time></trkpt><trkpt lat="42.5107559" lon="12.4607907"><ele>230.0</ele><time>2026-03-23T13:42:35.204Z</time></trkpt><trkpt lat="42.5107829" lon="12.4609032"><ele>229.00000000000003</ele><time>2026-03-23T13:42:36.203Z</time></trkpt><trkpt lat="42.5108261" lon="12.4610052"><ele>228.0</ele><time>2026-03-23T13:42:37.204Z</time></trkpt><trkpt lat="42.5108715" lon="12.461095"><ele>227.0</ele><time>2026-03-23T13:42:38.203Z</time></trkpt><trkpt lat="42.5109149" lon="12.4611766"><ele>226.0</ele><time>2026-03-23T13:42:39.203Z</time></trkpt><trkpt lat="42.5109622" lon="12.4612613"><ele>225.00000000000003</ele><time>2026-03-23T13:42:40.203Z</time></trkpt><trkpt lat="42.5110099" lon="12.4613425"><ele>224.0</ele><time>2026-03-23T13:42:41.203Z</time></trkpt><trkpt lat="42.5110515" lon="12.4614297"><ele>223.33333333333334</ele><time>2026-03-23T13:42:42.203Z</time></trkpt><trkpt lat="42.5110855" lon="12.4615167"><ele>222.66666666666669</ele><time>2026-03-23T13:42:43.204Z</time></trkpt><trkpt lat="42.5111202" lon="12.4616039"><ele>222.0</ele><time>2026-03-23T13:42:44.204Z</time></trkpt><trkpt lat="42.5111436" lon="12.4617007"><ele>221.33333333333331</ele><time>2026-03-23T13:42:45.203Z</time></trkpt><trkpt lat="42.5111703" lon="12.461795"><ele>220.66666666666666</ele><time>2026-03-23T13:42:46.203Z</time></trkpt><trkpt lat="42.5111874" lon="12.4618959"><ele>220.0</ele><time>2026-03-23T13:42:47.203Z</time></trkpt><trkpt lat="42.5111977" lon="12.4620036"><ele>219.99999999999997</ele><time>2026-03-23T13:42:48.203Z</time></trkpt><trkpt lat="42.5112019" lon="12.4621147"><ele>220.0</ele><time>2026-03-23T13:42:49.203Z</time></trkpt><trkpt lat="42.511198" lon="12.4622222"><ele>220.0</ele><time>2026-03-23T13:42:50.204Z</time></trkpt><trkpt lat="42.5111979" lon="12.4623333"><ele>220.0</ele><time>2026-03-23T13:42:51.203Z</time></trkpt><trkpt lat="42.5111958" lon="12.4624456"><ele>219.99999999999997</ele><time>2026-03-23T13:42:52.203Z</time></trkpt><trkpt lat="42.5111863" lon="12.4625505"><ele>220.0</ele><time>2026-03-23T13:42:53.203Z</time></trkpt><trkpt lat="42.5111741" lon="12.4626638"><ele>219.83333333333331</ele><time>2026-03-23T13:42:54.205Z</time></trkpt><trkpt lat="42.5111503" lon="12.4627753"><ele>219.66666666666666</ele><time>2026-03-23T13:42:55.204Z</time></trkpt><trkpt lat="42.5111228" lon="12.4628751"><ele>219.5</ele><time>2026-03-23T13:42:56.204Z</time></trkpt><trkpt lat="42.5111032" lon="12.4629679"><ele>219.33333333333331</ele><time>2026-03-23T13:42:57.204Z</time></trkpt><trkpt lat="42.5110811" lon="12.4630558"><ele>219.16666666666666</ele><time>2026-03-23T13:42:58.205Z</time></trkpt><trkpt lat="42.5110756" lon="12.4631427"><ele>219.0</ele><time>2026-03-23T13:42:59.204Z</time></trkpt><trkpt lat="42.5111106" lon="12.4632787"><ele>219.5</ele><time>2026-03-23T13:43:01.204Z</time></trkpt><trkpt lat="42.5111746" lon="12.4633742"><ele>220.0</ele><time>2026-03-23T13:43:03.204Z</time></trkpt><trkpt lat="42.5112517" lon="12.4635025"><ele>220.5</ele><time>2026-03-23T13:43:05.203Z</time></trkpt><trkpt lat="42.5112876" lon="12.4635778"><ele>221.0</ele><time>2026-03-23T13:43:06.203Z</time></trkpt><trkpt lat="42.5113277" lon="12.4636611"><ele>221.5</ele><time>2026-03-23T13:43:07.203Z</time></trkpt><trkpt lat="42.511365" lon="12.4637438"><ele>222.0</ele><time>2026-03-23T13:43:08.204Z</time></trkpt><trkpt lat="42.5114026" lon="12.4638208"><ele>227.0</ele><time>2026-03-23T13:43:09.203Z</time></trkpt><trkpt lat="42.511461" lon="12.4639492"><ele>227.0</ele><time>2026-03-23T13:43:11.204Z</time></trkpt><trkpt lat="42.5115092" lon="12.4640588"><ele>227.0</ele><time>2026-03-23T13:43:13.204Z</time></trkpt><trkpt lat="42.5115401" lon="12.4641518"><ele>227.0</ele><time>2026-03-23T13:43:15.203Z</time></trkpt><trkpt lat="42.5115533" lon="12.464246"><ele>227.0</ele><time>2026-03-23T13:43:18.203Z</time></trkpt></trkseg></trk></gpx>